sensor_id;sensor_type;location;lat;lon;timestamp;temperature;humidity
47226;DHT22;32965;64.142;-21.912;2022-09-06T00:00:12;11.20;99.50
47226;DHT22;32965;64.142;-21.912;2022-09-06T00:02:38;11.10;99.50
47226;DHT22;32965;64.142;-21.912;2022-09-06T00:05:05;11.20;99.50
47226;DHT22;32965;64.142;-21.912;2022-09-06T00:07:31;11.10;99.40
47226;DHT22;32965;64.142;-21.912;2022-09-06T00:09:59;11.00;99.40
47226;DHT22;32965;64.142;-21.912;2022-09-06T00:12:25;10.90;99.40
47226;DHT22;32965;64.142;-21.912;2022-09-06T00:14:51;10.80;99.50
47226;DHT22;32965;64.142;-21.912;2022-09-06T00:17:18;10.90;99.60
47226;DHT22;32965;64.142;-21.912;2022-09-06T00:19:44;10.80;99.50
47226;DHT22;32965;64.142;-21.912;2022-09-06T00:22:09;10.80;99.50
47226;DHT22;32965;64.142;-21.912;2022-09-06T00:24:35;10.80;99.50
47226;DHT22;32965;64.142;-21.912;2022-09-06T00:27:02;10.70;99.50
47226;DHT22;32965;64.142;-21.912;2022-09-06T00:29:28;10.80;99.50
47226;DHT22;32965;64.142;-21.912;2022-09-06T00:31:54;10.80;99.50
47226;DHT22;32965;64.142;-21.912;2022-09-06T00:34:20;10.70;99.60
47226;DHT22;32965;64.142;-21.912;2022-09-06T00:36:45;10.70;99.60
47226;DHT22;32965;64.142;-21.912;2022-09-06T00:39:11;10.70;99.50
47226;DHT22;32965;64.142;-21.912;2022-09-06T00:41:37;10.70;99.50
47226;DHT22;32965;64.142;-21.912;2022-09-06T00:44:03;10.70;99.40
47226;DHT22;32965;64.142;-21.912;2022-09-06T00:46:30;10.60;99.40
47226;DHT22;32965;64.142;-21.912;2022-09-06T00:49:04;10.60;99.40
47226;DHT22;32965;64.142;-21.912;2022-09-06T00:51:31;10.70;99.40
47226;DHT22;32965;64.142;-21.912;2022-09-06T00:54:02;10.60;99.40
47226;DHT22;32965;64.142;-21.912;2022-09-06T00:56:28;10.60;99.30
47226;DHT22;32965;64.142;-21.912;2022-09-06T00:58:55;10.60;99.30
47226;DHT22;32965;64.142;-21.912;2022-09-06T01:01:21;10.60;99.50
47226;DHT22;32965;64.142;-21.912;2022-09-06T01:03:47;10.60;99.30
47226;DHT22;32965;64.142;-21.912;2022-09-06T01:37:36;10.40;98.60
47226;DHT22;32965;64.142;-21.912;2022-09-06T01:40:02;10.30;98.60
47226;DHT22;32965;64.142;-21.912;2022-09-06T01:42:30;10.30;98.60
47226;DHT22;32965;64.142;-21.912;2022-09-06T01:45:04;10.30;98.60
47226;DHT22;32965;64.142;-21.912;2022-09-06T01:53:10;10.40;98.60
47226;DHT22;32965;64.142;-21.912;2022-09-06T01:55:45;10.40;98.60
47226;DHT22;32965;64.142;-21.912;2022-09-06T02:01:02;10.40;98.50
47226;DHT22;32965;64.142;-21.912;2022-09-06T02:06:06;10.40;98.70
47226;DHT22;32965;64.142;-21.912;2022-09-06T02:08:40;10.40;98.70
47226;DHT22;32965;64.142;-21.912;2022-09-06T02:11:07;10.40;98.70
47226;DHT22;32965;64.142;-21.912;2022-09-06T02:13:44;10.40;98.90
47226;DHT22;32965;64.142;-21.912;2022-09-06T02:16:14;10.30;98.70
47226;DHT22;32965;64.142;-21.912;2022-09-06T02:19:07;10.30;98.80
47226;DHT22;32965;64.142;-21.912;2022-09-06T02:21:39;10.40;98.70
47226;DHT22;32965;64.142;-21.912;2022-09-06T02:24:08;10.40;98.80
47226;DHT22;32965;64.142;-21.912;2022-09-06T02:26:37;10.30;98.90
47226;DHT22;32965;64.142;-21.912;2022-09-06T02:29:04;10.30;99.00
47226;DHT22;32965;64.142;-21.912;2022-09-06T02:32:14;10.30;99.00
47226;DHT22;32965;64.142;-21.912;2022-09-06T02:34:40;10.40;99.00
47226;DHT22;32965;64.142;-21.912;2022-09-06T02:37:06;10.40;99.10
47226;DHT22;32965;64.142;-21.912;2022-09-06T02:39:33;10.50;99.10
47226;DHT22;32965;64.142;-21.912;2022-09-06T02:41:59;10.50;99.10
47226;DHT22;32965;64.142;-21.912;2022-09-06T02:44:26;10.50;99.10
47226;DHT22;32965;64.142;-21.912;2022-09-06T02:46:51;10.40;99.10
47226;DHT22;32965;64.142;-21.912;2022-09-06T02:49:17;10.40;99.20
47226;DHT22;32965;64.142;-21.912;2022-09-06T02:51:43;10.40;99.20
47226;DHT22;32965;64.142;-21.912;2022-09-06T02:54:08;10.40;99.20
47226;DHT22;32965;64.142;-21.912;2022-09-06T02:56:34;10.40;99.20
47226;DHT22;32965;64.142;-21.912;2022-09-06T02:59:02;10.40;99.30
47226;DHT22;32965;64.142;-21.912;2022-09-06T03:01:30;10.40;99.30
47226;DHT22;32965;64.142;-21.912;2022-09-06T03:03:56;10.30;99.20
47226;DHT22;32965;64.142;-21.912;2022-09-06T03:06:22;10.30;99.20
47226;DHT22;32965;64.142;-21.912;2022-09-06T03:08:48;10.30;99.30
47226;DHT22;32965;64.142;-21.912;2022-09-06T03:11:14;10.20;99.30
47226;DHT22;32965;64.142;-21.912;2022-09-06T03:13:39;10.30;99.40
47226;DHT22;32965;64.142;-21.912;2022-09-06T03:16:05;10.30;99.40
47226;DHT22;32965;64.142;-21.912;2022-09-06T03:18:31;10.30;99.30
47226;DHT22;32965;64.142;-21.912;2022-09-06T03:20:57;10.30;99.20
47226;DHT22;32965;64.142;-21.912;2022-09-06T03:23:25;10.30;99.20
47226;DHT22;32965;64.142;-21.912;2022-09-06T03:25:52;10.30;99.10
47226;DHT22;32965;64.142;-21.912;2022-09-06T03:28:18;10.30;99.20
47226;DHT22;32965;64.142;-21.912;2022-09-06T03:30:46;10.30;99.20
47226;DHT22;32965;64.142;-21.912;2022-09-06T03:33:12;10.30;99.10
47226;DHT22;32965;64.142;-21.912;2022-09-06T03:35:38;10.30;99.00
47226;DHT22;32965;64.142;-21.912;2022-09-06T03:38:04;10.30;98.90
47226;DHT22;32965;64.142;-21.912;2022-09-06T03:40:29;10.30;98.80
47226;DHT22;32965;64.142;-21.912;2022-09-06T03:42:55;10.30;98.80
47226;DHT22;32965;64.142;-21.912;2022-09-06T03:45:21;10.20;98.70
47226;DHT22;32965;64.142;-21.912;2022-09-06T03:47:47;10.20;98.70
47226;DHT22;32965;64.142;-21.912;2022-09-06T03:50:13;10.20;98.70
47226;DHT22;32965;64.142;-21.912;2022-09-06T03:52:39;10.10;98.60
47226;DHT22;32965;64.142;-21.912;2022-09-06T03:55:05;10.10;98.60
47226;DHT22;32965;64.142;-21.912;2022-09-06T03:57:31;10.10;98.60
47226;DHT22;32965;64.142;-21.912;2022-09-06T03:59:57;10.10;98.50
47226;DHT22;32965;64.142;-21.912;2022-09-06T04:02:23;10.10;98.60
47226;DHT22;32965;64.142;-21.912;2022-09-06T04:04:48;10.10;98.60
47226;DHT22;32965;64.142;-21.912;2022-09-06T04:07:14;10.10;98.70
47226;DHT22;32965;64.142;-21.912;2022-09-06T04:09:40;10.10;98.70
47226;DHT22;32965;64.142;-21.912;2022-09-06T04:12:06;10.10;98.70
47226;DHT22;32965;64.142;-21.912;2022-09-06T04:14:31;10.00;98.80
47226;DHT22;32965;64.142;-21.912;2022-09-06T04:16:57;10.10;98.80
47226;DHT22;32965;64.142;-21.912;2022-09-06T04:19:23;10.10;98.80
47226;DHT22;32965;64.142;-21.912;2022-09-06T04:21:48;10.10;99.00
47226;DHT22;32965;64.142;-21.912;2022-09-06T04:24:14;10.20;98.80
47226;DHT22;32965;64.142;-21.912;2022-09-06T04:26:40;10.20;98.70
47226;DHT22;32965;64.142;-21.912;2022-09-06T04:29:05;10.20;98.70
47226;DHT22;32965;64.142;-21.912;2022-09-06T04:31:31;10.20;98.80
47226;DHT22;32965;64.142;-21.912;2022-09-06T04:33:57;10.10;98.70
47226;DHT22;32965;64.142;-21.912;2022-09-06T04:36:23;10.10;98.80
47226;DHT22;32965;64.142;-21.912;2022-09-06T04:38:48;10.10;98.80
47226;DHT22;32965;64.142;-21.912;2022-09-06T04:41:15;10.10;98.90
47226;DHT22;32965;64.142;-21.912;2022-09-06T04:43:41;10.10;98.90
47226;DHT22;32965;64.142;-21.912;2022-09-06T04:46:24;10.20;98.90
47226;DHT22;32965;64.142;-21.912;2022-09-06T04:48:52;10.20;98.80
47226;DHT22;32965;64.142;-21.912;2022-09-06T04:51:19;10.10;98.90
47226;DHT22;32965;64.142;-21.912;2022-09-06T04:53:45;10.10;99.00
47226;DHT22;32965;64.142;-21.912;2022-09-06T04:56:19;10.10;99.00
47226;DHT22;32965;64.142;-21.912;2022-09-06T04:58:46;10.10;99.00
47226;DHT22;32965;64.142;-21.912;2022-09-06T05:01:12;10.00;99.30
47226;DHT22;32965;64.142;-21.912;2022-09-06T05:03:38;10.10;99.10
47226;DHT22;32965;64.142;-21.912;2022-09-06T05:08:31;10.10;99.20
47226;DHT22;32965;64.142;-21.912;2022-09-06T05:10:56;10.00;98.80
47226;DHT22;32965;64.142;-21.912;2022-09-06T05:13:22;9.90;98.80
47226;DHT22;32965;64.142;-21.912;2022-09-06T05:15:48;9.80;98.80
47226;DHT22;32965;64.142;-21.912;2022-09-06T05:18:14;9.80;98.90
47226;DHT22;32965;64.142;-21.912;2022-09-06T05:20:39;9.80;99.00
47226;DHT22;32965;64.142;-21.912;2022-09-06T05:23:05;9.80;99.10
47226;DHT22;32965;64.142;-21.912;2022-09-06T05:25:31;9.80;99.10
47226;DHT22;32965;64.142;-21.912;2022-09-06T05:27:56;9.80;99.10
47226;DHT22;32965;64.142;-21.912;2022-09-06T05:30:22;9.80;99.10
47226;DHT22;32965;64.142;-21.912;2022-09-06T05:32:49;9.80;99.10
47226;DHT22;32965;64.142;-21.912;2022-09-06T05:35:15;9.80;99.00
47226;DHT22;32965;64.142;-21.912;2022-09-06T05:37:41;9.70;99.00
47226;DHT22;32965;64.142;-21.912;2022-09-06T05:40:07;9.70;99.00
47226;DHT22;32965;64.142;-21.912;2022-09-06T05:42:33;9.80;99.10
47226;DHT22;32965;64.142;-21.912;2022-09-06T05:44:58;9.70;99.00
47226;DHT22;32965;64.142;-21.912;2022-09-06T05:47:26;9.60;99.10
47226;DHT22;32965;64.142;-21.912;2022-09-06T05:49:52;9.60;99.10
47226;DHT22;32965;64.142;-21.912;2022-09-06T05:52:18;9.60;99.10
47226;DHT22;32965;64.142;-21.912;2022-09-06T05:54:44;9.60;99.20
47226;DHT22;32965;64.142;-21.912;2022-09-06T05:57:09;9.60;99.10
47226;DHT22;32965;64.142;-21.912;2022-09-06T05:59:35;9.60;99.20
47226;DHT22;32965;64.142;-21.912;2022-09-06T06:02:01;9.60;99.20
47226;DHT22;32965;64.142;-21.912;2022-09-06T06:04:27;9.60;99.30
47226;DHT22;32965;64.142;-21.912;2022-09-06T06:06:52;9.70;99.30
47226;DHT22;32965;64.142;-21.912;2022-09-06T06:09:18;9.70;99.20
47226;DHT22;32965;64.142;-21.912;2022-09-06T06:11:44;9.70;99.10
47226;DHT22;32965;64.142;-21.912;2022-09-06T06:14:10;9.70;99.10
47226;DHT22;32965;64.142;-21.912;2022-09-06T06:16:35;9.70;99.20
47226;DHT22;32965;64.142;-21.912;2022-09-06T06:19:01;9.70;99.20
47226;DHT22;32965;64.142;-21.912;2022-09-06T06:21:29;9.60;99.20
47226;DHT22;32965;64.142;-21.912;2022-09-06T06:23:58;9.60;99.20
47226;DHT22;32965;64.142;-21.912;2022-09-06T06:26:25;9.60;99.20
47226;DHT22;32965;64.142;-21.912;2022-09-06T06:28:51;9.60;99.20
47226;DHT22;32965;64.142;-21.912;2022-09-06T06:31:18;9.70;99.20
47226;DHT22;32965;64.142;-21.912;2022-09-06T06:33:46;9.80;99.20
47226;DHT22;32965;64.142;-21.912;2022-09-06T06:38:44;9.90;99.10
47226;DHT22;32965;64.142;-21.912;2022-09-06T06:41:13;9.90;99.10
47226;DHT22;32965;64.142;-21.912;2022-09-06T06:43:39;10.10;99.00
47226;DHT22;32965;64.142;-21.912;2022-09-06T06:46:10;10.10;98.90
47226;DHT22;32965;64.142;-21.912;2022-09-06T06:48:38;10.20;98.70
47226;DHT22;32965;64.142;-21.912;2022-09-06T06:51:09;10.20;98.70
47226;DHT22;32965;64.142;-21.912;2022-09-06T06:53:35;10.30;98.60
47226;DHT22;32965;64.142;-21.912;2022-09-06T06:56:33;10.40;98.60
47226;DHT22;32965;64.142;-21.912;2022-09-06T06:58:59;10.50;98.40
47226;DHT22;32965;64.142;-21.912;2022-09-06T07:01:27;10.40;98.30
47226;DHT22;32965;64.142;-21.912;2022-09-06T07:03:54;10.40;98.20
47226;DHT22;32965;64.142;-21.912;2022-09-06T07:06:20;10.40;98.20
47226;DHT22;32965;64.142;-21.912;2022-09-06T07:08:46;10.40;98.20
47226;DHT22;32965;64.142;-21.912;2022-09-06T07:11:13;10.40;98.20
47226;DHT22;32965;64.142;-21.912;2022-09-06T07:13:39;10.40;98.20
47226;DHT22;32965;64.142;-21.912;2022-09-06T07:16:13;10.40;98.20
47226;DHT22;32965;64.142;-21.912;2022-09-06T07:18:40;10.60;98.40
47226;DHT22;32965;64.142;-21.912;2022-09-06T07:21:18;10.80;98.40
47226;DHT22;32965;64.142;-21.912;2022-09-06T07:23:45;11.10;98.10
47226;DHT22;32965;64.142;-21.912;2022-09-06T07:26:15;11.20;98.00
47226;DHT22;32965;64.142;-21.912;2022-09-06T07:28:42;11.40;97.80
47226;DHT22;32965;64.142;-21.912;2022-09-06T07:31:08;11.50;97.50
47226;DHT22;32965;64.142;-21.912;2022-09-06T07:33:35;11.60;97.30
47226;DHT22;32965;64.142;-21.912;2022-09-06T07:36:02;11.70;97.00
47226;DHT22;32965;64.142;-21.912;2022-09-06T07:38:29;11.90;96.90
47226;DHT22;32965;64.142;-21.912;2022-09-06T07:40:57;12.10;96.70
47226;DHT22;32965;64.142;-21.912;2022-09-06T07:43:24;12.50;96.30
47226;DHT22;32965;64.142;-21.912;2022-09-06T07:46:06;12.60;95.70
47226;DHT22;32965;64.142;-21.912;2022-09-06T07:48:35;12.60;95.10
47226;DHT22;32965;64.142;-21.912;2022-09-06T07:51:06;12.40;95.00
47226;DHT22;32965;64.142;-21.912;2022-09-06T07:53:32;12.30;95.10
47226;DHT22;32965;64.142;-21.912;2022-09-06T07:56:03;12.20;95.10
47226;DHT22;32965;64.142;-21.912;2022-09-06T07:58:30;12.20;95.00
47226;DHT22;32965;64.142;-21.912;2022-09-06T08:01:31;12.10;95.10
47226;DHT22;32965;64.142;-21.912;2022-09-06T08:04:10;12.30;95.00
47226;DHT22;32965;64.142;-21.912;2022-09-06T08:06:44;12.30;95.10
47226;DHT22;32965;64.142;-21.912;2022-09-06T08:09:11;12.30;95.00
47226;DHT22;32965;64.142;-21.912;2022-09-06T08:11:37;12.30;94.90
47226;DHT22;32965;64.142;-21.912;2022-09-06T08:14:05;12.30;94.80
47226;DHT22;32965;64.142;-21.912;2022-09-06T08:16:33;12.40;94.90
47226;DHT22;32965;64.142;-21.912;2022-09-06T08:19:01;12.60;94.80
47226;DHT22;32965;64.142;-21.912;2022-09-06T08:21:29;13.00;94.60
47226;DHT22;32965;64.142;-21.912;2022-09-06T08:24:01;13.60;94.10
47226;DHT22;32965;64.142;-21.912;2022-09-06T08:26:28;14.20;93.40
47226;DHT22;32965;64.142;-21.912;2022-09-06T08:28:56;15.00;92.50
47226;DHT22;32965;64.142;-21.912;2022-09-06T08:31:23;15.70;91.10
47226;DHT22;32965;64.142;-21.912;2022-09-06T08:33:50;16.50;89.90
47226;DHT22;32965;64.142;-21.912;2022-09-06T08:36:17;17.40;86.40
47226;DHT22;32965;64.142;-21.912;2022-09-06T08:38:43;17.90;81.80
47226;DHT22;32965;64.142;-21.912;2022-09-06T08:43:51;18.60;76.90
47226;DHT22;32965;64.142;-21.912;2022-09-06T08:46:21;18.90;74.50
47226;DHT22;32965;64.142;-21.912;2022-09-06T08:48:48;19.00;73.10
47226;DHT22;32965;64.142;-21.912;2022-09-06T08:53:44;19.50;69.30
47226;DHT22;32965;64.142;-21.912;2022-09-06T08:56:22;19.80;67.50
47226;DHT22;32965;64.142;-21.912;2022-09-06T08:59:12;20.00;65.80
47226;DHT22;32965;64.142;-21.912;2022-09-06T09:04:21;19.80;63.60
47226;DHT22;32965;64.142;-21.912;2022-09-06T09:06:51;20.00;62.40
47226;DHT22;32965;64.142;-21.912;2022-09-06T09:09:19;19.90;62.00
47226;DHT22;32965;64.142;-21.912;2022-09-06T09:11:49;20.10;60.70
47226;DHT22;32965;64.142;-21.912;2022-09-06T09:14:28;20.20;59.90
47226;DHT22;32965;64.142;-21.912;2022-09-06T09:17:16;19.80;60.00
47226;DHT22;32965;64.142;-21.912;2022-09-06T09:19:46;19.40;61.10
47226;DHT22;32965;64.142;-21.912;2022-09-06T09:22:17;19.30;62.00
47226;DHT22;32965;64.142;-21.912;2022-09-06T09:24:47;19.50;61.30
47226;DHT22;32965;64.142;-21.912;2022-09-06T09:27:14;19.30;61.10
47226;DHT22;32965;64.142;-21.912;2022-09-06T09:32:37;19.00;63.00
47226;DHT22;32965;64.142;-21.912;2022-09-06T09:38:11;19.50;61.80
47226;DHT22;32965;64.142;-21.912;2022-09-06T09:40:52;19.10;62.00
47226;DHT22;32965;64.142;-21.912;2022-09-06T09:43:30;19.20;62.30
47226;DHT22;32965;64.142;-21.912;2022-09-06T09:51:28;19.50;61.20
47226;DHT22;32965;64.142;-21.912;2022-09-06T09:59:19;19.30;60.50
47226;DHT22;32965;64.142;-21.912;2022-09-06T10:01:46;19.30;60.90
47226;DHT22;32965;64.142;-21.912;2022-09-06T10:04:19;19.20;61.20
47226;DHT22;32965;64.142;-21.912;2022-09-06T10:06:46;19.10;61.50
47226;DHT22;32965;64.142;-21.912;2022-09-06T10:09:32;18.40;63.50
47226;DHT22;32965;64.142;-21.912;2022-09-06T10:11:59;17.90;65.60
47226;DHT22;32965;64.142;-21.912;2022-09-06T10:16:51;16.70;69.90
47226;DHT22;32965;64.142;-21.912;2022-09-06T10:19:37;16.30;72.30
47226;DHT22;32965;64.142;-21.912;2022-09-06T10:22:30;15.80;74.20
47226;DHT22;32965;64.142;-21.912;2022-09-06T10:27:26;14.90;80.70
47226;DHT22;32965;64.142;-21.912;2022-09-06T10:30:06;14.50;83.70
47226;DHT22;32965;64.142;-21.912;2022-09-06T10:38:06;13.80;90.80
47226;DHT22;32965;64.142;-21.912;2022-09-06T10:43:47;13.50;91.70
47226;DHT22;32965;64.142;-21.912;2022-09-06T10:46:15;13.60;92.00
47226;DHT22;32965;64.142;-21.912;2022-09-06T10:48:46;13.40;92.50
47226;DHT22;32965;64.142;-21.912;2022-09-06T10:51:38;13.50;92.00
47226;DHT22;32965;64.142;-21.912;2022-09-06T10:54:13;13.60;92.30
47226;DHT22;32965;64.142;-21.912;2022-09-06T10:56:59;13.30;92.80
47226;DHT22;32965;64.142;-21.912;2022-09-06T10:59:35;13.10;93.20
47226;DHT22;32965;64.142;-21.912;2022-09-06T11:05:03;12.70;94.10
47226;DHT22;32965;64.142;-21.912;2022-09-06T11:07:33;12.60;94.40
47226;DHT22;32965;64.142;-21.912;2022-09-06T11:10:19;12.50;94.70
47226;DHT22;32965;64.142;-21.912;2022-09-06T11:15:19;12.40;94.80
47226;DHT22;32965;64.142;-21.912;2022-09-06T11:18:02;12.30;94.70
47226;DHT22;32965;64.142;-21.912;2022-09-06T11:20:49;12.30;94.90
47226;DHT22;32965;64.142;-21.912;2022-09-06T11:28:47;12.30;95.50
47226;DHT22;32965;64.142;-21.912;2022-09-06T11:31:47;12.50;95.30
47226;DHT22;32965;64.142;-21.912;2022-09-06T11:36:56;12.50;95.50
47226;DHT22;32965;64.142;-21.912;2022-09-06T11:39:28;12.60;95.50
47226;DHT22;32965;64.142;-21.912;2022-09-06T11:47:41;13.10;95.10
47226;DHT22;32965;64.142;-21.912;2022-09-06T11:53:20;13.50;94.70
47226;DHT22;32965;64.142;-21.912;2022-09-06T12:08:56;13.80;93.90
47226;DHT22;32965;64.142;-21.912;2022-09-06T12:13:57;13.90;93.70
47226;DHT22;32965;64.142;-21.912;2022-09-06T12:25:03;14.10;93.20
47226;DHT22;32965;64.142;-21.912;2022-09-06T12:27:37;14.10;92.80
47226;DHT22;32965;64.142;-21.912;2022-09-06T12:30:07;14.10;92.80
47226;DHT22;32965;64.142;-21.912;2022-09-06T12:32:42;14.10;92.90
47226;DHT22;32965;64.142;-21.912;2022-09-06T12:35:16;14.20;93.00
47226;DHT22;32965;64.142;-21.912;2022-09-06T12:37:57;14.30;92.90
47226;DHT22;32965;64.142;-21.912;2022-09-06T12:40:25;14.40;92.70
47226;DHT22;32965;64.142;-21.912;2022-09-06T12:42:52;14.60;92.50
47226;DHT22;32965;64.142;-21.912;2022-09-06T12:45:20;14.80;92.30
47226;DHT22;32965;64.142;-21.912;2022-09-06T12:47:47;14.90;92.00
47226;DHT22;32965;64.142;-21.912;2022-09-06T12:50:23;14.90;92.10
47226;DHT22;32965;64.142;-21.912;2022-09-06T12:55:28;15.10;92.00
47226;DHT22;32965;64.142;-21.912;2022-09-06T12:57:58;15.20;91.90
47226;DHT22;32965;64.142;-21.912;2022-09-06T13:00:49;15.30;91.70
47226;DHT22;32965;64.142;-21.912;2022-09-06T13:03:39;15.40;91.50
47226;DHT22;32965;64.142;-21.912;2022-09-06T13:06:13;15.50;91.40
47226;DHT22;32965;64.142;-21.912;2022-09-06T13:08:49;15.50;91.40
47226;DHT22;32965;64.142;-21.912;2022-09-06T13:11:28;15.50;91.40
47226;DHT22;32965;64.142;-21.912;2022-09-06T13:13:55;15.40;91.70
47226;DHT22;32965;64.142;-21.912;2022-09-06T13:16:30;15.40;91.90
47226;DHT22;32965;64.142;-21.912;2022-09-06T13:19:19;15.50;91.90
47226;DHT22;32965;64.142;-21.912;2022-09-06T13:21:54;15.30;91.90
47226;DHT22;32965;64.142;-21.912;2022-09-06T13:26:58;15.00;92.60
47226;DHT22;32965;64.142;-21.912;2022-09-06T13:29:29;14.80;92.60
47226;DHT22;32965;64.142;-21.912;2022-09-06T13:31:56;14.70;92.50
47226;DHT22;32965;64.142;-21.912;2022-09-06T13:34:28;14.60;92.20
47226;DHT22;32965;64.142;-21.912;2022-09-06T13:37:08;14.40;92.50
47226;DHT22;32965;64.142;-21.912;2022-09-06T13:39:42;14.30;93.10
47226;DHT22;32965;64.142;-21.912;2022-09-06T13:42:29;14.30;93.50
47226;DHT22;32965;64.142;-21.912;2022-09-06T13:44:56;14.10;93.70
47226;DHT22;32965;64.142;-21.912;2022-09-06T13:47:26;14.00;92.80
47226;DHT22;32965;64.142;-21.912;2022-09-06T13:49:52;14.10;92.80
47226;DHT22;32965;64.142;-21.912;2022-09-06T13:52:20;14.00;92.20
47226;DHT22;32965;64.142;-21.912;2022-09-06T13:54:46;14.10;92.50
47226;DHT22;32965;64.142;-21.912;2022-09-06T13:57:13;14.10;92.10
47226;DHT22;32965;64.142;-21.912;2022-09-06T13:59:39;14.10;92.50
47226;DHT22;32965;64.142;-21.912;2022-09-06T14:02:10;14.10;92.50
47226;DHT22;32965;64.142;-21.912;2022-09-06T14:04:38;14.20;92.70
47226;DHT22;32965;64.142;-21.912;2022-09-06T14:07:04;14.20;92.90
47226;DHT22;32965;64.142;-21.912;2022-09-06T14:09:32;14.00;93.50
47226;DHT22;32965;64.142;-21.912;2022-09-06T14:11:58;13.90;94.00
47226;DHT22;32965;64.142;-21.912;2022-09-06T14:14:25;13.90;94.10
47226;DHT22;32965;64.142;-21.912;2022-09-06T14:16:51;13.90;94.10
47226;DHT22;32965;64.142;-21.912;2022-09-06T14:19:18;13.80;94.00
47226;DHT22;32965;64.142;-21.912;2022-09-06T14:21:44;13.80;93.90
47226;DHT22;32965;64.142;-21.912;2022-09-06T14:24:09;13.90;93.80
47226;DHT22;32965;64.142;-21.912;2022-09-06T14:26:36;13.80;93.90
47226;DHT22;32965;64.142;-21.912;2022-09-06T14:29:02;13.80;94.10
47226;DHT22;32965;64.142;-21.912;2022-09-06T14:31:28;13.70;94.40
47226;DHT22;32965;64.142;-21.912;2022-09-06T14:33:55;13.70;94.30
47226;DHT22;32965;64.142;-21.912;2022-09-06T14:36:24;13.70;94.50
47226;DHT22;32965;64.142;-21.912;2022-09-06T14:38:50;13.80;94.60
47226;DHT22;32965;64.142;-21.912;2022-09-06T14:41:17;13.80;94.40
47226;DHT22;32965;64.142;-21.912;2022-09-06T14:43:48;13.80;94.50
47226;DHT22;32965;64.142;-21.912;2022-09-06T14:46:14;13.90;94.40
47226;DHT22;32965;64.142;-21.912;2022-09-06T14:48:41;13.90;94.40
47226;DHT22;32965;64.142;-21.912;2022-09-06T14:51:16;14.00;94.40
47226;DHT22;32965;64.142;-21.912;2022-09-06T14:53:50;14.00;94.10
47226;DHT22;32965;64.142;-21.912;2022-09-06T14:56:17;14.00;94.10
47226;DHT22;32965;64.142;-21.912;2022-09-06T14:58:43;14.10;94.10
47226;DHT22;32965;64.142;-21.912;2022-09-06T15:01:16;14.10;93.90
47226;DHT22;32965;64.142;-21.912;2022-09-06T15:03:44;14.00;93.80
47226;DHT22;32965;64.142;-21.912;2022-09-06T15:06:17;13.90;93.90
47226;DHT22;32965;64.142;-21.912;2022-09-06T15:08:43;13.80;94.10
47226;DHT22;32965;64.142;-21.912;2022-09-06T15:11:09;13.90;94.20
47226;DHT22;32965;64.142;-21.912;2022-09-06T15:13:35;14.00;94.00
47226;DHT22;32965;64.142;-21.912;2022-09-06T15:16:06;14.00;94.00
47226;DHT22;32965;64.142;-21.912;2022-09-06T15:18:32;13.90;93.90
47226;DHT22;32965;64.142;-21.912;2022-09-06T15:21:10;13.80;93.80
47226;DHT22;32965;64.142;-21.912;2022-09-06T15:23:36;13.90;93.90
47226;DHT22;32965;64.142;-21.912;2022-09-06T15:26:05;13.90;94.10
47226;DHT22;32965;64.142;-21.912;2022-09-06T15:28:33;14.00;94.00
47226;DHT22;32965;64.142;-21.912;2022-09-06T15:30:59;14.10;93.90
47226;DHT22;32965;64.142;-21.912;2022-09-06T15:33:31;14.20;93.60
47226;DHT22;32965;64.142;-21.912;2022-09-06T15:35:58;14.10;93.40
47226;DHT22;32965;64.142;-21.912;2022-09-06T15:38:38;14.00;93.40
47226;DHT22;32965;64.142;-21.912;2022-09-06T15:41:09;14.00;93.70
47226;DHT22;32965;64.142;-21.912;2022-09-06T15:43:38;13.90;93.50
47226;DHT22;32965;64.142;-21.912;2022-09-06T15:46:07;13.90;93.60
47226;DHT22;32965;64.142;-21.912;2022-09-06T15:48:44;13.90;93.70
47226;DHT22;32965;64.142;-21.912;2022-09-06T15:51:12;14.00;93.00
47226;DHT22;32965;64.142;-21.912;2022-09-06T15:53:38;14.00;93.20
47226;DHT22;32965;64.142;-21.912;2022-09-06T15:56:05;13.90;93.00
47226;DHT22;32965;64.142;-21.912;2022-09-06T15:58:32;14.00;93.30
47226;DHT22;32965;64.142;-21.912;2022-09-06T16:01:10;14.00;93.20
47226;DHT22;32965;64.142;-21.912;2022-09-06T16:03:56;14.10;92.90
47226;DHT22;32965;64.142;-21.912;2022-09-06T16:06:30;14.10;92.70
47226;DHT22;32965;64.142;-21.912;2022-09-06T16:08:58;14.20;92.90
47226;DHT22;32965;64.142;-21.912;2022-09-06T16:11:26;14.40;92.80
47226;DHT22;32965;64.142;-21.912;2022-09-06T16:13:52;14.50;92.50
47226;DHT22;32965;64.142;-21.912;2022-09-06T16:16:18;14.50;92.10
47226;DHT22;32965;64.142;-21.912;2022-09-06T16:23:41;14.70;90.70
47226;DHT22;32965;64.142;-21.912;2022-09-06T16:26:07;14.70;90.40
47226;DHT22;32965;64.142;-21.912;2022-09-06T16:28:35;14.80;89.80
47226;DHT22;32965;64.142;-21.912;2022-09-06T16:31:03;14.90;88.90
47226;DHT22;32965;64.142;-21.912;2022-09-06T16:33:31;15.00;88.50
47226;DHT22;32965;64.142;-21.912;2022-09-06T16:36:02;15.00;88.30
47226;DHT22;32965;64.142;-21.912;2022-09-06T16:38:32;15.00;88.70
47226;DHT22;32965;64.142;-21.912;2022-09-06T16:40:58;14.90;89.20
47226;DHT22;32965;64.142;-21.912;2022-09-06T16:43:25;14.90;89.70
47226;DHT22;32965;64.142;-21.912;2022-09-06T16:45:56;14.70;90.40
47226;DHT22;32965;64.142;-21.912;2022-09-06T16:50:48;14.60;90.90
47226;DHT22;32965;64.142;-21.912;2022-09-06T16:53:14;14.60;91.20
47226;DHT22;32965;64.142;-21.912;2022-09-06T16:55:39;14.60;91.40
47226;DHT22;32965;64.142;-21.912;2022-09-06T16:58:05;14.70;91.40
47226;DHT22;32965;64.142;-21.912;2022-09-06T17:05:25;14.80;91.90
47226;DHT22;32965;64.142;-21.912;2022-09-06T17:07:53;14.90;92.20
47226;DHT22;32965;64.142;-21.912;2022-09-06T17:10:19;14.80;92.40
47226;DHT22;32965;64.142;-21.912;2022-09-06T17:12:46;14.80;92.60
47226;DHT22;32965;64.142;-21.912;2022-09-06T17:15:11;14.80;92.90
47226;DHT22;32965;64.142;-21.912;2022-09-06T17:17:37;14.80;93.00
47226;DHT22;32965;64.142;-21.912;2022-09-06T17:20:04;14.80;92.30
47226;DHT22;32965;64.142;-21.912;2022-09-06T17:22:31;14.80;92.30
47226;DHT22;32965;64.142;-21.912;2022-09-06T17:27:26;14.90;92.20
47226;DHT22;32965;64.142;-21.912;2022-09-06T17:32:17;14.90;92.30
47226;DHT22;32965;64.142;-21.912;2022-09-06T17:34:47;14.90;92.40
47226;DHT22;32965;64.142;-21.912;2022-09-06T17:37:13;14.90;92.20
47226;DHT22;32965;64.142;-21.912;2022-09-06T17:42:15;14.80;91.90
47226;DHT22;32965;64.142;-21.912;2022-09-06T17:44:42;14.90;92.10
47226;DHT22;32965;64.142;-21.912;2022-09-06T17:47:08;14.80;92.10
47226;DHT22;32965;64.142;-21.912;2022-09-06T17:49:34;14.80;92.00
47226;DHT22;32965;64.142;-21.912;2022-09-06T17:52:00;14.80;92.20